Time;durP1;ratioP1;P1;durP2;ratioP2;P2;SDS_P1;SDS_P2;PMS_P1;PMS_P2;Temp;Humidity;BMP_temperature;BMP_pressure;BME280_temperature;BME280_humidity;BME280_pressure;Samples;Min_cycle;Max_cycle;Signal;HPM_P1;HPM_P2
2022/03/31 00:00:44;;;;;;;5.70;3.45;;;;;;;3.20;76.33;99613.69;4988914;28;20046;-83
2022/03/31 00:03:14;;;;;;;8.55;2.72;;;;;;;3.21;76.20;99605.06;4989736;28;20049;-85
2022/03/31 00:05:41;;;;;;;4.63;3.35;;;;;;;3.20;75.90;99610.25;5017766;28;20046;-84
2022/03/31 00:08:14;;;;;;;8.18;2.58;;;;;;;3.22;75.89;99606.81;5011446;28;20525;-83
2022/03/31 00:10:55;;;;;;;4.10;3.03;;;;;;;3.22;75.98;99599.03;5013575;28;20053;-83
2022/03/31 00:13:29;;;;;;;7.50;2.67;;;;;;;3.25;76.06;99600.78;5000448;28;20076;-83
2022/03/31 00:15:58;;;;;;;8.60;2.53;;;;;;;3.26;75.98;99597.31;5001610;28;20752;-84
2022/03/31 00:18:27;;;;;;;4.55;3.25;;;;;;;3.26;75.68;99605.94;5013006;28;20050;-84
2022/03/31 00:20:54;;;;;;;2.60;2.22;;;;;;;3.27;75.49;99609.41;5014502;28;20248;-84
2022/03/31 00:23:20;;;;;;;4.75;2.63;;;;;;;3.26;75.39;99603.38;5011422;28;20068;-83
2022/03/31 00:25:47;;;;;;;6.03;2.35;;;;;;;3.30;75.32;99599.06;4994895;28;20069;-84
2022/03/31 00:28:13;;;;;;;4.43;2.72;;;;;;;3.32;75.02;99599.94;4998357;28;20050;-84
2022/03/31 00:30:40;;;;;;;3.88;2.42;;;;;;;3.36;74.88;99595.63;5001600;28;20049;-83
2022/03/31 00:33:08;;;;;;;9.02;2.88;;;;;;;3.38;74.90;99593.94;4997621;28;20448;-83
2022/03/31 00:35:35;;;;;;;7.50;2.40;;;;;;;3.39;74.71;99583.59;5012461;28;20090;-84
2022/03/31 00:38:02;;;;;;;4.43;2.08;;;;;;;3.41;74.39;99588.75;5010627;28;20869;-83
2022/03/31 00:40:31;;;;;;;4.20;2.58;;;;;;;3.41;74.31;99581.84;5009219;28;20117;-83
2022/03/31 00:42:59;;;;;;;8.52;3.58;;;;;;;3.40;74.10;99584.44;5009750;28;20150;-83
2022/03/31 00:45:32;;;;;;;6.35;3.60;;;;;;;3.39;73.94;99580.13;4997760;28;20109;-84
2022/03/31 00:47:59;;;;;;;6.75;3.00;;;;;;;3.37;74.22;99587.03;4980307;28;20045;-84
2022/03/31 00:50:26;;;;;;;3.08;2.40;;;;;;;3.35;73.84;99586.16;4998182;28;20050;-85
2022/03/31 00:52:53;;;;;;;6.18;2.83;;;;;;;3.31;74.14;99582.66;4979764;28;20081;-84
2022/03/31 00:55:21;;;;;;;4.25;3.28;;;;;;;3.28;74.47;99582.69;4978684;28;20143;-83
2022/03/31 00:57:55;;;;;;;6.50;2.70;;;;;;;3.25;74.35;99577.50;4992766;28;20050;-83
2022/03/31 01:00:22;;;;;;;4.45;2.88;;;;;;;3.22;74.67;99580.06;4981845;28;20332;-83
2022/03/31 01:02:49;;;;;;;4.85;2.90;;;;;;;3.19;74.15;99569.72;4997516;28;20136;-84
2022/03/31 01:05:15;;;;;;;10.57;3.75;;;;;;;3.15;74.32;99566.25;4997990;28;20097;-83
2022/03/31 01:07:43;;;;;;;3.70;2.42;;;;;;;3.12;74.42;99567.09;4995048;28;20053;-83
2022/03/31 01:10:13;;;;;;;5.22;2.55;;;;;;;3.09;74.51;99571.38;4996195;28;20097;-83
2022/03/31 01:12:41;;;;;;;4.65;2.97;;;;;;;3.06;74.86;99568.81;4996105;28;20048;-83
2022/03/31 01:15:19;;;;;;;9.60;3.40;;;;;;;3.02;75.13;99567.91;4997180;28;20050;-82
2022/03/31 01:17:49;;;;;;;11.80;3.80;;;;;;;2.97;75.20;99562.75;4995087;28;20045;-83
2022/03/31 01:20:20;;;;;;;10.65;3.15;;;;;;;2.93;75.00;99562.72;4983886;28;20049;-83
2022/03/31 01:22:47;;;;;;;9.40;3.40;;;;;;;2.88;75.77;99554.06;4986421;28;20046;-83
2022/03/31 01:25:15;;;;;;;11.98;4.82;;;;;;;2.84;76.14;99554.91;4999134;28;20113;-84
2022/03/31 01:27:44;;;;;;;5.13;3.00;;;;;;;2.80;76.35;99552.31;4997317;28;20668;-83
2022/03/31 01:30:16;;;;;;;7.70;3.42;;;;;;;2.74;76.32;99551.44;4982663;28;20080;-84
2022/03/31 01:32:45;;;;;;;7.30;3.45;;;;;;;2.73;76.92;99549.69;4982362;28;20050;-83
2022/03/31 01:35:15;;;;;;;10.52;3.97;;;;;;;2.73;76.76;99547.13;4997266;28;20042;-83
2022/03/31 01:37:43;;;;;;;8.18;3.80;;;;;;;2.71;76.78;99549.69;4997691;28;20050;-84
2022/03/31 01:40:11;;;;;;;5.43;3.83;;;;;;;2.71;77.10;99544.53;4998568;28;20043;-83
2022/03/31 01:42:38;;;;;;;5.78;3.28;;;;;;;2.70;77.40;99541.91;4997673;28;20133;-82
2022/03/31 01:45:08;;;;;;;3.90;2.85;;;;;;;2.65;77.64;99536.75;5006978;28;20053;-82
2022/03/31 01:47:35;;;;;;;9.68;3.78;;;;;;;2.58;77.66;99538.44;4998924;28;20050;-83
2022/03/31 01:50:02;;;;;;;10.48;4.30;;;;;;;2.53;77.72;99537.53;4997753;28;20116;-84
2022/03/31 01:52:30;;;;;;;10.05;3.90;;;;;;;2.46;77.97;99533.19;5018457;28;20039;-83
2022/03/31 01:54:56;;;;;;;10.43;4.10;;;;;;;2.41;78.70;99535.75;5012015;28;20052;-85
2022/03/31 01:57:23;;;;;;;4.28;3.05;;;;;;;2.36;78.76;99537.44;5008414;28;20116;-83
2022/03/31 01:59:50;;;;;;;7.45;3.80;;;;;;;2.35;78.80;99529.66;5002518;28;20052;-83
2022/03/31 02:02:16;;;;;;;8.98;3.53;;;;;;;2.30;79.48;99532.22;4995985;28;20072;-83
2022/03/31 02:04:43;;;;;;;7.80;3.35;;;;;;;2.28;79.64;99531.34;4994272;28;20057;-82
2022/03/31 02:07:10;;;;;;;5.70;4.35;;;;;;;2.31;80.31;99533.97;5016981;28;20073;-82
2022/03/31 02:09:40;;;;;;;6.22;3.42;;;;;;;2.30;79.71;99533.09;4996448;28;20073;-83
2022/03/31 02:12:08;;;;;;;8.23;4.03;;;;;;;2.28;79.97;99524.47;4995894;28;20076;-84
2022/03/31 02:14:37;;;;;;;8.02;3.67;;;;;;;2.23;80.23;99526.16;5011318;28;20047;-84
2022/03/31 02:17:11;;;;;;;9.43;4.40;;;;;;;2.21;80.83;99527.00;5015438;28;20437;-83
2022/03/31 02:19:41;;;;;;;;;;;;;;;2.17;80.88;99525.25;5009431;28;20041;-82
2022/03/31 02:22:08;;;;;;;10.30;4.10;;;;;;;2.14;80.83;99524.38;4996685;28;19925;-82
2022/03/31 02:24:35;;;;;;;11.20;4.05;;;;;;;2.11;80.74;99524.38;4997212;28;20053;-83
2022/03/31 02:27:04;;;;;;;10.25;4.18;;;;;;;2.14;81.60;99519.22;4998751;28;20071;-84
2022/03/31 02:29:30;;;;;;;7.38;4.45;;;;;;;2.17;81.70;99514.94;4997773;28;20148;-84
2022/03/31 02:31:57;;;;;;;12.32;4.63;;;;;;;2.18;81.96;99511.47;4997858;28;20045;-82
2022/03/31 02:34:24;;;;;;;4.97;3.92;;;;;;;2.18;81.53;99512.34;4996328;28;20045;-84
2022/03/31 02:36:50;;;;;;;10.00;4.93;;;;;;;2.20;82.20;99513.22;5002633;28;20057;-84
2022/03/31 02:39:17;;;;;;;10.63;4.43;;;;;;;2.22;82.13;99508.09;5015264;28;20080;-83
2022/03/31 02:41:44;;;;;;;7.68;4.97;;;;;;;2.25;83.11;99513.25;5015926;28;20037;-83
2022/03/31 02:44:10;;;;;;;12.52;4.93;;;;;;;2.25;82.87;99508.09;5004120;28;20076;-84
2022/03/31 02:46:38;;;;;;;10.55;5.05;;;;;;;2.29;83.16;99510.72;4997469;28;20045;-83
2022/03/31 02:49:05;;;;;;;9.68;4.10;;;;;;;2.34;83.21;99507.28;5013980;28;20056;-82
2022/03/31 02:51:32;;;;;;;14.60;5.82;;;;;;;2.37;82.97;99512.47;5015208;28;20646;-83
2022/03/31 02:56:48;;;;;;;10.98;6.07;;;;;;;2.48;83.76;99498.75;4965048;28;20057;-83
2022/03/31 02:59:15;;;;;;;10.18;5.90;;;;;;;2.51;84.42;99492.75;5012175;28;20069;-83
2022/03/31 03:01:43;;;;;;;12.10;6.05;;;;;;;2.54;84.40;99500.50;5020518;28;20104;-83
2022/03/31 03:04:11;;;;;;;14.93;6.20;;;;;;;2.56;85.32;99497.94;5017709;28;20050;-83
2022/03/31 03:06:38;;;;;;;14.02;7.03;;;;;;;2.55;85.38;99491.03;5003714;28;20057;-84
2022/03/31 03:09:07;;;;;;;10.55;5.95;;;;;;;2.55;85.39;99507.41;5018246;28;20046;-83
2022/03/31 03:11:35;;;;;;;13.48;7.43;;;;;;;2.56;85.91;99496.22;5019765;28;20045;-84
2022/03/31 03:14:02;;;;;;;14.05;7.28;;;;;;;2.55;86.77;99491.03;5003378;28;20145;-83
2022/03/31 03:16:29;;;;;;;13.43;6.60;;;;;;;2.56;86.79;99497.94;5020106;28;20042;-85
2022/03/31 03:18:55;;;;;;;14.68;8.07;;;;;;;2.53;86.66;99491.03;5012152;28;20057;-83
2022/03/31 03:21:22;;;;;;;14.60;7.55;;;;;;;2.53;87.00;99488.47;5008436;28;20045;-83
2022/03/31 03:23:48;;;;;;;12.20;7.50;;;;;;;2.53;87.33;99488.47;4994656;28;20045;-84
2022/03/31 03:26:15;;;;;;;21.33;11.90;;;;;;;2.53;86.80;99487.56;4995451;28;20041;-83
2022/03/31 03:28:42;;;;;;;13.30;7.45;;;;;;;2.56;88.45;99490.19;5011603;28;20432;-84
2022/03/31 03:31:09;;;;;;;14.85;7.65;;;;;;;2.54;88.60;99478.97;5013835;28;20088;-84
2022/03/31 03:33:38;;;;;;;14.43;8.23;;;;;;;2.54;89.17;99487.56;4996565;28;20079;-83
2022/03/31 03:36:10;;;;;;;12.05;7.10;;;;;;;2.54;89.77;99489.31;4999077;28;20072;-83
2022/03/31 03:38:37;;;;;;;12.98;8.95;;;;;;;2.54;89.29;99486.72;4999346;28;20080;-83
2022/03/31 03:41:04;;;;;;;13.00;8.48;;;;;;;2.53;90.70;99478.13;4987003;28;20064;-84
2022/03/31 03:43:31;;;;;;;16.83;9.43;;;;;;;2.54;91.14;99495.31;5015894;28;20046;-83
2022/03/31 03:45:58;;;;;;;17.40;8.98;;;;;;;2.52;90.76;99494.47;4998008;28;20066;-84
2022/03/31 03:48:25;;;;;;;14.50;8.50;;;;;;;2.51;91.64;99494.47;4999492;28;20079;-84
2022/03/31 03:50:53;;;;;;;14.93;8.57;;;;;;;2.50;91.95;99488.41;5017566;28;20048;-83
2022/03/31 03:53:20;;;;;;;16.48;10.40;;;;;;;2.52;91.55;99489.31;5018185;28;20057;-83
2022/03/31 03:55:47;;;;;;;16.58;9.23;;;;;;;2.52;92.03;99485.88;5001143;28;20042;-82
2022/03/31 03:58:14;;;;;;;20.98;10.80;;;;;;;2.55;91.68;99491.03;4995089;28;20041;-84
2022/03/31 04:00:41;;;;;;;16.45;9.35;;;;;;;2.55;91.99;99485.88;5015801;28;20046;-83
2022/03/31 04:03:09;;;;;;;16.00;10.45;;;;;;;2.53;92.17;99480.72;5004204;28;20071;-84
2022/03/31 04:05:35;;;;;;;15.07;8.35;;;;;;;2.53;91.61;99487.56;5002078;28;20046;-82
2022/03/31 04:08:02;;;;;;;20.10;9.88;;;;;;;2.53;92.26;99491.03;5020961;28;20057;-84
2022/03/31 04:10:29;;;;;;;14.27;10.32;;;;;;;2.55;92.29;99494.47;5015645;28;20038;-85
2022/03/31 04:12:56;;;;;;;14.70;10.25;;;;;;;2.55;92.35;99489.31;4996732;28;20759;-84
2022/03/31 04:15:23;;;;;;;15.35;9.65;;;;;;;2.55;92.29;99486.72;5013607;28;20061;-84
2022/03/31 04:17:49;;;;;;;17.13;10.43;;;;;;;2.56;92.15;99496.22;5011757;28;20045;-84
2022/03/31 04:20:16;;;;;;;16.35;10.85;;;;;;;2.56;92.72;99485.88;5008940;28;20050;-83
2022/03/31 04:22:43;;;;;;;17.52;10.82;;;;;;;2.55;92.80;99489.31;4997216;28;20050;-83
2022/03/31 04:25:13;;;;;;;16.27;10.18;;;;;;;2.57;92.53;99489.31;5009570;28;20076;-83
2022/03/31 04:27:41;;;;;;;12.45;9.95;;;;;;;2.62;92.29;99485.91;4982743;28;20050;-83
2022/03/31 04:30:11;;;;;;;16.02;9.38;;;;;;;2.70;92.27;99487.66;5012985;28;20041;-83
2022/03/31 04:32:38;;;;;;;13.52;9.57;;;;;;;2.73;92.27;99498.03;5000237;28;20041;-85
2022/03/31 04:35:07;;;;;;;19.10;12.23;;;;;;;2.74;93.33;99489.41;5014320;28;20873;-83
2022/03/31 04:37:34;;;;;;;15.57;10.77;;;;;;;2.76;92.46;99504.03;4999118;28;20045;-84
2022/03/31 04:40:02;;;;;;;21.17;11.30;;;;;;;2.79;93.95;99493.72;5010182;28;20088;-83
2022/03/31 04:42:29;;;;;;;18.33;12.05;;;;;;;2.79;93.99;99500.59;4999450;28;20048;-83
2022/03/31 04:44:56;;;;;;;27.17;14.32;;;;;;;2.83;94.64;99504.06;5008449;28;20065;-84
2022/03/31 04:47:23;;;;;;;28.30;16.00;;;;;;;2.86;94.80;99491.19;5004282;28;20096;-83
2022/03/31 04:49:49;;;;;;;34.13;19.55;;;;;;;2.89;95.27;99507.53;5007936;28;20034;-85
2022/03/31 04:52:16;;;;;;;33.65;19.42;;;;;;;2.89;95.75;99502.38;4988504;28;20486;-84
2022/03/31 04:54:44;;;;;;;34.35;20.75;;;;;;;2.88;95.39;99505.84;4993128;28;20081;-85
2022/03/31 04:57:20;;;;;;;32.97;19.98;;;;;;;2.90;95.61;99496.34;4994105;28;20063;-85
2022/03/31 04:59:46;;;;;;;31.42;19.02;;;;;;;2.96;95.35;99498.13;5001337;28;20056;-83
2022/03/31 05:02:14;;;;;;;35.67;20.63;;;;;;;2.98;95.80;99497.22;5003341;28;20083;-84
2022/03/31 05:04:41;;;;;;;36.28;20.52;;;;;;;2.96;95.83;99501.56;5005390;28;20069;-83
2022/03/31 05:07:09;;;;;;;35.75;20.67;;;;;;;2.96;96.15;99498.97;4993105;28;20497;-84
2022/03/31 05:09:39;;;;;;;33.67;20.02;;;;;;;3.02;95.31;99494.69;4993618;28;20050;-84
2022/03/31 05:12:06;;;;;;;39.42;21.60;;;;;;;3.06;95.21;99496.41;4995334;28;20046;-84
2022/03/31 05:14:33;;;;;;;33.35;20.60;;;;;;;3.07;95.18;99493.81;4998972;28;20395;-84
2022/03/31 05:17:00;;;;;;;33.28;20.13;;;;;;;3.10;94.86;99485.22;4999385;28;20049;-83
2022/03/31 05:19:29;;;;;;;30.25;19.48;;;;;;;3.10;94.81;99486.09;5002004;28;20050;-83
2022/03/31 05:21:56;;;;;;;33.88;20.38;;;;;;;3.09;94.23;99489.53;5013982;28;20267;-84
2022/03/31 05:24:25;;;;;;;38.28;22.25;;;;;;;3.09;94.47;99486.94;4998377;28;20567;-83
2022/03/31 05:26:52;;;;;;;37.47;21.13;;;;;;;3.14;93.90;99493.00;5012046;28;20053;-84
2022/03/31 05:29:22;;;;;;;35.50;20.60;;;;;;;3.15;93.67;99488.66;5010068;28;20042;-84
2022/03/31 05:31:50;;;;;;;37.42;18.63;;;;;;;3.17;93.65;99493.84;4992555;28;20146;-84
2022/03/31 05:34:18;;;;;;;34.65;19.10;;;;;;;3.19;93.49;99495.56;4989032;28;20060;-83
2022/03/31 05:36:46;;;;;;;30.77;17.40;;;;;;;3.22;93.31;99492.13;4991981;28;20117;-84
2022/03/31 05:39:12;;;;;;;28.98;18.05;;;;;;;3.24;92.70;99493.00;5005729;28;20046;-86
2022/03/31 05:41:39;;;;;;;23.88;14.63;;;;;;;3.24;92.44;99504.19;4984184;28;20598;-85
2022/03/31 05:44:06;;;;;;;27.80;15.90;;;;;;;3.23;92.19;99504.22;4998638;28;20050;-86
2022/03/31 05:46:33;;;;;;;26.13;14.77;;;;;;;3.25;92.16;99497.31;4998067;28;20057;-84
2022/03/31 05:48:59;;;;;;;26.30;14.85;;;;;;;3.23;91.45;99505.06;4991257;28;20096;-85
2022/03/31 05:51:29;;;;;;;29.35;15.52;;;;;;;3.26;91.52;99507.66;5000513;28;20128;-83
2022/03/31 05:54:01;;;;;;;28.23;14.70;;;;;;;3.26;91.04;99509.38;4998414;28;20088;-84
2022/03/31 05:56:27;;;;;;;22.92;14.25;;;;;;;3.31;90.68;99513.72;4991481;28;20049;-84
2022/03/31 05:58:54;;;;;;;23.48;16.08;;;;;;;3.36;90.05;99511.13;5012980;28;20156;-83
2022/03/31 06:01:20;;;;;;;27.00;17.13;;;;;;;3.39;89.37;99516.31;5014041;28;20048;-84
2022/03/31 06:03:47;;;;;;;23.95;16.23;;;;;;;3.44;88.89;99522.38;5026683;28;20333;-85
2022/03/31 06:06:14;;;;;;;29.98;18.48;;;;;;;3.43;88.00;99514.63;5016169;28;20046;-84
2022/03/31 06:08:42;;;;;;;28.60;18.77;;;;;;;3.41;88.03;99527.50;4998049;28;20038;-84
2022/03/31 06:11:09;;;;;;;30.88;16.05;;;;;;;3.41;87.65;99531.84;4999681;28;20822;-84
2022/03/31 06:13:36;;;;;;;26.23;18.25;;;;;;;3.37;88.23;99533.56;4996025;28;20072;-85
2022/03/31 06:16:04;;;;;;;31.77;15.52;;;;;;;3.37;88.00;99527.53;4996416;28;20076;-84
2022/03/31 06:18:31;;;;;;;28.42;15.63;;;;;;;3.35;87.86;99530.13;5011452;28;20121;-83
2022/03/31 06:20:58;;;;;;;25.95;16.38;;;;;;;3.34;87.63;99533.56;5007957;28;20045;-84
2022/03/31 06:23:25;;;;;;;25.08;15.25;;;;;;;3.31;88.10;99537.00;5012157;28;20123;-84
2022/03/31 06:25:53;;;;;;;24.63;15.05;;;;;;;3.35;87.77;99531.81;5014803;28;20060;-84
2022/03/31 06:28:20;;;;;;;27.75;16.60;;;;;;;3.35;87.73;99535.28;4995992;28;20042;-84
2022/03/31 06:30:48;;;;;;;22.58;14.77;;;;;;;3.35;87.55;99542.16;4986155;28;20045;-83
2022/03/31 06:33:20;;;;;;;23.77;16.08;;;;;;;3.35;87.54;99531.81;4991059;28;20041;-84
2022/03/31 06:35:49;;;;;;;29.38;15.38;;;;;;;3.35;87.47;99543.06;4997668;28;20180;-84
2022/03/31 06:38:16;;;;;;;24.63;16.33;;;;;;;3.33;86.65;99539.59;4994008;28;20069;-83
2022/03/31 06:41:06;;;;;;;35.90;18.80;;;;;;;3.27;87.07;99534.38;5007804;28;20037;-83
2022/03/31 06:43:29;;;;;;;31.20;19.27;;;;;;;3.26;87.26;99536.13;5006488;28;20042;-86
2022/03/31 06:45:56;;;;;;;33.67;19.88;;;;;;;3.28;86.71;99538.69;5010350;28;20088;-84
2022/03/31 06:48:25;;;;;;;27.10;18.05;;;;;;;3.33;87.02;99538.72;4992732;28;20124;-84
2022/03/31 06:50:53;;;;;;;27.75;17.90;;;;;;;3.33;86.55;99539.59;5004996;28;20069;-83
2022/03/31 06:53:24;;;;;;;36.47;18.67;;;;;;;3.32;86.10;99537.84;4993386;28;20080;-84
2022/03/31 06:55:50;;;;;;;34.17;18.95;;;;;;;3.33;86.00;99544.75;5004654;28;20046;-83
2022/03/31 06:58:18;;;;;;;32.00;18.55;;;;;;;3.35;85.64;99534.41;4993478;28;20073;-85
2022/03/31 07:00:47;;;;;;;28.35;18.13;;;;;;;3.39;85.22;99536.13;4998769;28;20052;-85
2022/03/31 07:03:14;;;;;;;29.27;19.55;;;;;;;3.41;84.46;99537.00;5009829;28;20058;-85
2022/03/31 07:05:40;;;;;;;35.92;19.85;;;;;;;3.42;84.21;99531.00;5010842;28;20045;-83
2022/03/31 07:08:07;;;;;;;34.88;19.33;;;;;;;3.45;83.62;99541.34;4993788;28;20085;-85
2022/03/31 07:10:34;;;;;;;27.92;17.73;;;;;;;3.43;83.97;99535.31;4992803;28;20770;-83
2022/03/31 07:13:01;;;;;;;34.45;18.73;;;;;;;3.44;82.96;99532.72;5007656;28;20774;-83
2022/03/31 07:15:29;;;;;;;28.42;16.58;;;;;;;3.38;83.00;99537.88;5005650;28;20061;-83
2022/03/31 07:17:56;;;;;;;29.02;17.13;;;;;;;3.36;83.56;99544.75;5010784;28;20282;-84
2022/03/31 07:20:25;;;;;;;25.30;15.52;;;;;;;3.37;83.35;99548.22;4995126;28;20049;-83
2022/03/31 07:22:52;;;;;;;29.13;16.75;;;;;;;3.43;83.69;99548.25;4994896;28;20404;-83
2022/03/31 07:25:24;;;;;;;22.02;12.90;;;;;;;3.55;82.85;99550.00;4993366;28;21278;-84
2022/03/31 07:27:51;;;;;;;19.50;11.07;;;;;;;3.68;81.86;99543.97;5010447;28;20504;-85
2022/03/31 07:30:20;;;;;;;16.88;10.10;;;;;;;3.76;80.26;99544.81;5010064;28;20148;-84
2022/03/31 07:32:55;;;;;;;16.92;10.50;;;;;;;3.83;80.04;99550.00;5013219;28;20069;-84
2022/03/31 07:35:25;;;;;;;20.30;9.27;;;;;;;3.89;79.20;99555.22;4993298;28;20073;-84
2022/03/31 07:37:54;;;;;;;13.93;8.85;;;;;;;3.91;78.56;99545.69;4989447;28;20069;-84
2022/03/31 07:40:22;;;;;;;16.67;9.32;;;;;;;3.92;78.59;99550.88;5010427;28;20157;-84
2022/03/31 07:42:50;;;;;;;17.38;9.70;;;;;;;3.89;79.43;99547.44;4995028;28;20991;-83
2022/03/31 07:45:17;;;;;;;16.35;9.30;;;;;;;3.89;79.03;99545.69;4996609;28;20057;-84
2022/03/31 07:47:47;;;;;;;14.77;9.40;;;;;;;3.93;79.26;99544.84;4996180;28;20057;-84
2022/03/31 07:50:16;;;;;;;17.48;10.13;;;;;;;4.01;78.66;99544.84;5000437;28;20049;-85
2022/03/31 07:52:45;;;;;;;14.23;8.60;;;;;;;4.13;78.15;99543.97;5000785;28;20318;-85
2022/03/31 07:55:14;;;;;;;12.32;7.35;;;;;;;4.28;77.46;99548.28;5015617;28;20080;-85
2022/03/31 07:57:41;;;;;;;11.05;7.63;;;;;;;4.44;75.64;99556.88;5010608;28;20048;-84
2022/03/31 08:00:11;;;;;;;18.65;6.03;;;;;;;4.52;73.99;99552.53;5011215;28;20124;-84
2022/03/31 08:02:42;;;;;;;10.00;6.03;;;;;;;4.56;72.12;99548.22;4994717;28;20789;-84
2022/03/31 08:05:11;;;;;;;14.55;7.25;;;;;;;4.68;72.39;99547.31;4997745;28;20060;-84
2022/03/31 08:07:42;;;;;;;12.68;6.57;;;;;;;4.72;70.73;99543.84;4996316;28;20041;-84
2022/03/31 08:10:09;;;;;;;19.10;6.80;;;;;;;4.77;70.96;99553.38;5010502;28;20824;-84
2022/03/31 08:12:37;;;;;;;11.10;6.50;;;;;;;4.85;69.43;99552.47;4998163;28;20983;-85
2022/03/31 08:15:05;;;;;;;9.80;5.85;;;;;;;5.01;70.43;99556.75;4993847;28;20117;-83
2022/03/31 08:17:32;;;;;;;10.82;6.95;;;;;;;5.10;67.03;99554.09;5012940;28;20054;-85
2022/03/31 08:20:00;;;;;;;11.82;6.78;;;;;;;5.14;66.55;99544.56;4981095;28;20069;-84
2022/03/31 08:22:27;;;;;;;11.50;6.78;;;;;;;5.12;67.36;99548.91;4998997;28;20053;-85
2022/03/31 08:24:55;;;;;;;17.23;7.82;;;;;;;5.12;65.78;99554.97;4980860;28;20049;-81
2022/03/31 08:27:22;;;;;;;10.07;7.13;;;;;;;5.17;66.33;99562.72;4998817;28;20072;-84
2022/03/31 08:29:49;;;;;;;9.15;7.22;;;;;;;5.29;65.92;99556.59;4996515;28;20046;-84
2022/03/31 08:32:15;;;;;;;11.00;7.68;;;;;;;5.42;64.82;99550.50;4995971;28;20045;-83
2022/03/31 08:34:43;;;;;;;13.50;8.90;;;;;;;5.43;62.81;99549.59;4997319;28;20389;-85
2022/03/31 08:37:11;;;;;;;12.13;7.88;;;;;;;5.51;63.62;99549.56;5011601;28;20131;-83
2022/03/31 08:39:38;;;;;;;14.63;8.15;;;;;;;5.75;63.48;99556.34;4997911;28;20060;-84
2022/03/31 08:42:07;;;;;;;15.60;8.50;;;;;;;5.87;61.81;99557.97;5005721;28;20076;-81
2022/03/31 08:44:35;;;;;;;13.18;7.65;;;;;;;5.76;60.72;99559.78;5000710;28;20507;-84
2022/03/31 08:47:02;;;;;;;17.17;9.57;;;;;;;5.77;60.42;99557.16;5018862;28;20165;-84
2022/03/31 08:49:32;;;;;;;19.38;9.10;;;;;;;5.67;60.57;99555.53;5001649;28;20049;-84
2022/03/31 08:51:59;;;;;;;13.02;8.27;;;;;;;5.74;61.04;99552.00;5007002;28;20041;-84
2022/03/31 08:54:25;;;;;;;14.50;9.15;;;;;;;5.75;60.19;99553.75;4996838;28;20381;-84
2022/03/31 08:56:54;;;;;;;14.15;8.65;;;;;;;5.68;60.81;99546.00;4994637;28;20053;-85
2022/03/31 08:59:22;;;;;;;13.57;7.75;;;;;;;5.78;60.52;99551.09;5010666;28;20034;-81
2022/03/31 09:01:49;;;;;;;17.85;9.23;;;;;;;5.83;59.79;99564.06;5001500;28;20076;-85
2022/03/31 09:04:24;;;;;;;17.67;9.60;;;;;;;5.79;59.47;99558.03;4996124;28;20076;-83
2022/03/31 09:07:09;;;;;;;15.43;9.48;;;;;;;5.86;59.28;99555.41;4994851;28;20065;-84
2022/03/31 09:09:50;;;;;;;16.70;9.02;;;;;;;5.91;58.46;99564.88;4995579;28;20050;-84
2022/03/31 09:12:17;;;;;;;14.57;9.23;;;;;;;5.83;58.65;99558.00;5009718;28;20045;-84
2022/03/31 09:14:44;;;;;;;13.88;9.23;;;;;;;5.89;58.96;99563.16;4997913;28;20073;-84
2022/03/31 09:17:16;;;;;;;14.85;9.57;;;;;;;6.00;58.79;99551.00;5009269;28;20124;-84
2022/03/31 09:19:43;;;;;;;16.17;9.63;;;;;;;6.07;58.97;99557.84;4995761;28;20112;-85
2022/03/31 09:22:10;;;;;;;17.92;10.70;;;;;;;6.20;57.86;99556.00;5009456;28;20046;-85
2022/03/31 09:24:37;;;;;;;14.95;11.18;;;;;;;6.26;57.54;99549.91;4993781;28;20070;-86
2022/03/31 09:27:06;;;;;;;19.35;11.20;;;;;;;6.16;57.74;99548.28;5010118;28;20056;-83
2022/03/31 09:29:34;;;;;;;23.63;12.35;;;;;;;6.02;58.27;99558.75;5008282;28;20072;-83
2022/03/31 09:32:14;;;;;;;18.58;10.68;;;;;;;5.94;58.89;99559.66;5008425;28;20045;-84
2022/03/31 09:34:47;;;;;;;21.58;12.27;;;;;;;5.99;59.19;99566.59;4995896;28;20049;-84
2022/03/31 09:37:15;;;;;;;17.48;11.32;;;;;;;6.09;58.88;99563.91;5010443;28;20053;-83
2022/03/31 09:39:42;;;;;;;20.55;12.63;;;;;;;6.09;58.74;99563.06;5005498;28;20933;-83
2022/03/31 09:42:17;;;;;;;24.25;12.90;;;;;;;6.11;59.38;99575.16;5007673;28;20048;-85
2022/03/31 09:44:43;;;;;;;21.17;11.57;;;;;;;6.04;59.46;99562.22;5007410;28;20060;-85
2022/03/31 09:47:11;;;;;;;20.42;12.68;;;;;;;6.02;59.35;99576.94;5009696;28;20068;-84
2022/03/31 09:49:38;;;;;;;17.48;12.40;;;;;;;5.80;59.81;99575.34;4990307;28;20058;-86
2022/03/31 09:52:08;;;;;;;23.73;12.82;;;;;;;5.72;60.60;99573.66;4990785;28;20049;-85
2022/03/31 09:54:35;;;;;;;15.90;11.90;;;;;;;5.65;60.66;99564.22;5005951;28;20046;-85
2022/03/31 09:57:07;;;;;;;21.83;11.45;;;;;;;5.67;60.79;99568.53;5006125;28;20634;-86
2022/03/31 09:59:39;;;;;;;18.83;10.95;;;;;;;5.71;60.32;99567.63;5006666;28;20059;-85
2022/03/31 10:02:08;;;;;;;19.05;11.27;;;;;;;5.67;60.34;99563.31;4989086;28;20108;-84
2022/03/31 10:04:36;;;;;;;23.98;9.68;;;;;;;5.80;60.03;99566.69;4984168;28;20073;-85
2022/03/31 10:07:05;;;;;;;16.60;9.77;;;;;;;5.99;59.85;99567.44;4984334;28;20076;-85
2022/03/31 10:09:34;;;;;;;26.23;9.43;;;;;;;6.11;58.21;99567.38;4990991;28;20049;-85
2022/03/31 10:12:17;;;;;;;18.10;9.15;;;;;;;6.10;57.87;99565.63;4986251;28;20053;-85
2022/03/31 10:15:02;;;;;;;18.70;10.45;;;;;;;5.95;58.48;99568.31;5003910;28;20395;-85
2022/03/31 10:17:31;;;;;;;13.50;10.05;;;;;;;5.71;59.19;99559.84;5009077;28;20044;-84
2022/03/31 10:20:12;;;;;;;17.10;11.00;;;;;;;5.77;59.63;99559.75;5005678;28;20057;-84
2022/03/31 10:25:36;;;;;;;12.38;8.18;;;;;;;6.22;57.39;99554.28;4990669;28;20033;-85
2022/03/31 10:28:16;;;;;;;14.95;7.07;;;;;;;6.36;56.35;99555.88;5004964;28;20049;-86
2022/03/31 10:31:00;;;;;;;9.10;6.55;;;;;;;6.39;56.57;99554.13;5006590;28;20122;-83
2022/03/31 10:33:38;;;;;;;8.35;5.97;;;;;;;6.58;55.32;99548.72;4991943;28;20080;-84
2022/03/31 10:36:13;;;;;;;12.85;6.82;;;;;;;6.51;55.29;99547.06;4987441;28;20424;-85
2022/03/31 10:38:59;;;;;;;8.07;5.72;;;;;;;6.39;54.94;99550.66;4992868;28;20041;-85
2022/03/31 10:41:37;;;;;;;9.98;5.63;;;;;;;6.23;55.33;99544.72;4987100;28;20492;-85
2022/03/31 10:44:13;;;;;;;6.75;6.00;;;;;;;6.06;55.42;99539.69;4989986;28;20049;-82
2022/03/31 10:46:47;;;;;;;10.98;6.22;;;;;;;6.24;55.32;99541.25;5021817;28;20052;-84
2022/03/31 10:49:19;;;;;;;;;;;;;;;6.45;54.44;99538.47;5004186;28;20045;-85
2022/03/31 10:51:46;;;;;;;6.72;4.90;;;;;;;6.85;53.11;99537.16;4991017;28;19917;-84
2022/03/31 10:54:33;;;;;;;9.65;5.25;;;;;;;7.22;52.90;99536.72;4988467;28;20064;-85
2022/03/31 10:57:09;;;;;;;6.85;4.85;;;;;;;7.57;51.36;99526.66;4988457;28;20050;-84
2022/03/31 10:59:38;;;;;;;10.45;4.55;;;;;;;7.59;50.25;99530.97;4993072;28;20151;-85
2022/03/31 11:02:09;;;;;;;5.75;4.80;;;;;;;7.46;50.93;99534.66;4994886;28;20076;-85
2022/03/31 11:04:53;;;;;;;8.90;5.10;;;;;;;7.59;49.92;99525.75;5006810;28;20088;-82
2022/03/31 11:07:22;;;;;;;;;;;;;;;7.67;49.02;99525.66;4992894;28;20049;-83
2022/03/31 11:09:59;;;;;;;8.93;4.45;;;;;;;8.00;48.45;99517.31;4990708;28;19928;-84
2022/03/31 11:12:28;;;;;;;9.10;4.72;;;;;;;8.31;48.69;99520.25;4995989;28;20053;-81
2022/03/31 11:15:00;;;;;;;8.73;4.10;;;;;;;8.72;47.21;99521.28;5010155;28;20053;-83
2022/03/31 11:17:29;;;;;;;8.90;4.97;;;;;;;8.60;47.20;99511.94;5006110;28;20505;-84
2022/03/31 11:20:03;;;;;;;9.73;5.32;;;;;;;8.68;45.86;99519.63;5009633;28;20064;-83
2022/03/31 11:22:31;;;;;;;7.40;4.82;;;;;;;8.76;46.61;99507.28;4996610;28;20072;-85
2022/03/31 11:25:12;;;;;;;10.27;4.35;;;;;;;8.92;46.29;99501.75;4997029;28;20057;-84
2022/03/31 11:27:42;;;;;;;8.82;3.78;;;;;;;9.13;45.55;99508.25;5009788;28;20163;-85
2022/03/31 11:30:14;;;;;;;15.95;5.50;;;;;;;9.12;44.22;99511.75;4996772;28;20147;-83
2022/03/31 11:32:43;;;;;;;4.75;3.83;;;;;;;8.87;44.70;99508.81;5027258;28;20041;-83
2022/03/31 11:35:15;;;;;;;7.97;4.40;;;;;;;8.67;45.48;99509.19;5012146;28;20050;-85
2022/03/31 11:37:57;;;;;;;5.38;3.50;;;;;;;8.48;44.28;99517.38;5008612;28;20044;-86
2022/03/31 11:40:33;;;;;;;7.45;3.60;;;;;;;8.23;44.69;99499.53;4997467;28;20084;-84
2022/03/31 11:43:04;;;;;;;6.65;3.72;;;;;;;8.20;44.10;99506.53;5011029;28;20134;-83
2022/03/31 11:45:42;;;;;;;7.70;3.95;;;;;;;8.14;44.62;99507.53;5013510;28;20045;-83
2022/03/31 11:48:21;;;;;;;6.85;3.60;;;;;;;8.25;44.95;99509.94;4999020;28;20164;-86